Calilegua, Argentina
Current Conditions -  °F | °C
As of 8:00 AM on Sunday 21 Dec 2014 (Local Time) from SASJ Reporting Station
Broken Clouds Broken Clouds  
Wind Chill: 19°   Ceiling: 4000
Heat Index: 19°   Visibility: 6mi
Dew Point: 15°   Wind: 21mph
Humidity: 78%   Direction: 180°S
Pressure: 29.83"   Gusts: 35mph
Location:  23.78°S, 64.78°W
Report Text: SASJ 211100Z 18018G30KT 9999 SCT035 BKN040 19/15 Q1010
Loading
Personal Weather Stations






























Interactive Weather Map New forecast layout! Learn more

10-Day Weather Forecast

Advertisements
Track Severe Weather on mobile